sensor_id;sensor_type;location;lat;lon;timestamp;pressure;altitude;pressure_sealevel;temperature;humidity
17209;BME280;8720;48.488;9.202;2023-12-14T00:01:41;95983.44;;;11.31;63.58
17209;BME280;8720;48.488;9.202;2023-12-14T00:04:08;95979.84;;;11.33;63.94
17209;BME280;8720;48.488;9.202;2023-12-14T00:06:36;95974.53;;;11.35;63.69
17209;BME280;8720;48.488;9.202;2023-12-14T00:09:03;95976.44;;;11.31;63.58
17209;BME280;8720;48.488;9.202;2023-12-14T00:11:30;95978.97;;;11.33;63.62
17209;BME280;8720;48.488;9.202;2023-12-14T00:13:57;95985.78;;;11.37;63.80
17209;BME280;8720;48.488;9.202;2023-12-14T00:16:25;95995.34;;;11.38;63.87
17209;BME280;8720;48.488;9.202;2023-12-14T00:18:53;95992.66;;;11.39;63.73
17209;BME280;8720;48.488;9.202;2023-12-14T00:21:21;95989.47;;;11.33;63.58
17209;BME280;8720;48.488;9.202;2023-12-14T00:23:48;96003.06;;;11.41;63.56
17209;BME280;8720;48.488;9.202;2023-12-14T00:26:16;96000.53;;;11.39;63.42
17209;BME280;8720;48.488;9.202;2023-12-14T00:28:43;96005.88;;;11.36;63.82
17209;BME280;8720;48.488;9.202;2023-12-14T00:31:10;96005.94;;;11.35;63.65
17209;BME280;8720;48.488;9.202;2023-12-14T00:33:38;96008.66;;;11.33;63.63
17209;BME280;8720;48.488;9.202;2023-12-14T00:36:07;96007.78;;;11.33;63.63
17209;BME280;8720;48.488;9.202;2023-12-14T00:38:35;96013.03;;;11.33;63.73
17209;BME280;8720;48.488;9.202;2023-12-14T00:41:02;96017.34;;;11.34;63.71
17209;BME280;8720;48.488;9.202;2023-12-14T00:43:30;96020.72;;;11.36;63.54
17209;BME280;8720;48.488;9.202;2023-12-14T00:45:57;96021.66;;;11.35;63.61
17209;BME280;8720;48.488;9.202;2023-12-14T00:48:24;96029.38;;;11.38;63.68
17209;BME280;8720;48.488;9.202;2023-12-14T00:50:52;96037.22;;;11.38;63.56
17209;BME280;8720;48.488;9.202;2023-12-14T00:53:20;96014.00;;;11.30;63.71
17209;BME280;8720;48.488;9.202;2023-12-14T00:55:48;95992.03;;;11.14;63.75
17209;BME280;8720;48.488;9.202;2023-12-14T00:58:15;96043.25;;;11.40;63.81
17209;BME280;8720;48.488;9.202;2023-12-14T01:00:42;96026.13;;;11.33;63.68
17209;BME280;8720;48.488;9.202;2023-12-14T01:03:10;96040.59;;;11.41;63.98
17209;BME280;8720;48.488;9.202;2023-12-14T01:05:37;96044.91;;;11.42;63.95
17209;BME280;8720;48.488;9.202;2023-12-14T01:08:05;96056.22;;;11.43;63.76
17209;BME280;8720;48.488;9.202;2023-12-14T01:10:35;96045.94;;;11.38;63.83
17209;BME280;8720;48.488;9.202;2023-12-14T01:13:02;96060.50;;;11.45;64.02
17209;BME280;8720;48.488;9.202;2023-12-14T01:15:29;96056.00;;;11.47;64.11
17209;BME280;8720;48.488;9.202;2023-12-14T01:17:57;96061.22;;;11.49;64.13
17209;BME280;8720;48.488;9.202;2023-12-14T01:20:24;96068.03;;;11.53;64.07
17209;BME280;8720;48.488;9.202;2023-12-14T01:22:51;96063.56;;;11.55;64.08
17209;BME280;8720;48.488;9.202;2023-12-14T01:25:19;96072.16;;;11.58;63.89
17209;BME280;8720;48.488;9.202;2023-12-14T01:27:47;96076.38;;;11.61;64.13
17209;BME280;8720;48.488;9.202;2023-12-14T01:30:15;96079.78;;;11.63;64.16
17209;BME280;8720;48.488;9.202;2023-12-14T01:32:42;96078.88;;;11.64;64.01
17209;BME280;8720;48.488;9.202;2023-12-14T01:35:09;96086.63;;;11.67;63.95
17209;BME280;8720;48.488;9.202;2023-12-14T01:37:37;96093.44;;;11.71;63.93
17209;BME280;8720;48.488;9.202;2023-12-14T01:40:06;96089.94;;;11.72;63.95
17209;BME280;8720;48.488;9.202;2023-12-14T01:42:33;96096.00;;;11.72;63.80
17209;BME280;8720;48.488;9.202;2023-12-14T01:45:02;96104.63;;;11.74;63.65
17209;BME280;8720;48.488;9.202;2023-12-14T01:47:30;96108.97;;;11.75;63.88
17209;BME280;8720;48.488;9.202;2023-12-14T01:49:57;96107.16;;;11.77;63.58
17209;BME280;8720;48.488;9.202;2023-12-14T01:52:24;96111.44;;;11.78;63.79
17209;BME280;8720;48.488;9.202;2023-12-14T01:54:51;96116.66;;;11.80;63.77
17209;BME280;8720;48.488;9.202;2023-12-14T01:57:21;96124.38;;;11.83;63.77
17209;BME280;8720;48.488;9.202;2023-12-14T01:59:48;96127.84;;;11.83;63.82
17209;BME280;8720;48.488;9.202;2023-12-14T02:02:16;96127.78;;;11.85;63.87
17209;BME280;8720;48.488;9.202;2023-12-14T02:04:44;96134.84;;;11.83;63.78
17209;BME280;8720;48.488;9.202;2023-12-14T02:07:11;96134.66;;;11.88;63.81
17209;BME280;8720;48.488;9.202;2023-12-14T02:09:38;96137.22;;;11.89;64.03
17209;BME280;8720;48.488;9.202;2023-12-14T02:12:06;96145.06;;;11.89;63.79
17209;BME280;8720;48.488;9.202;2023-12-14T02:14:33;96148.56;;;11.90;63.91
17209;BME280;8720;48.488;9.202;2023-12-14T02:17:01;96147.69;;;11.89;63.77
17209;BME280;8720;48.488;9.202;2023-12-14T02:19:29;96144.22;;;11.88;63.81
17209;BME280;8720;48.488;9.202;2023-12-14T02:21:57;96152.00;;;11.90;63.91
17209;BME280;8720;48.488;9.202;2023-12-14T02:24:26;96157.25;;;11.90;63.80
17209;BME280;8720;48.488;9.202;2023-12-14T02:26:53;96152.00;;;11.90;64.05
17209;BME280;8720;48.488;9.202;2023-12-14T02:29:20;96150.16;;;11.92;63.92
17209;BME280;8720;48.488;9.202;2023-12-14T02:31:48;96151.88;;;11.93;63.92
17209;BME280;8720;48.488;9.202;2023-12-14T02:34:15;96155.41;;;11.92;63.50
17209;BME280;8720;48.488;9.202;2023-12-14T02:36:43;96153.66;;;11.93;63.75
17209;BME280;8720;48.488;9.202;2023-12-14T02:39:10;96155.41;;;11.92;63.75
17209;BME280;8720;48.488;9.202;2023-12-14T02:41:38;96157.13;;;11.93;63.45
17209;BME280;8720;48.488;9.202;2023-12-14T02:44:06;96152.78;;;11.92;63.27
17209;BME280;8720;48.488;9.202;2023-12-14T02:46:33;96163.34;;;11.91;63.37
17209;BME280;8720;48.488;9.202;2023-12-14T02:49:00;96161.78;;;11.86;63.33
17209;BME280;8720;48.488;9.202;2023-12-14T02:51:27;96161.06;;;11.83;63.20
17209;BME280;8720;48.488;9.202;2023-12-14T02:53:55;96160.34;;;11.79;63.11
17209;BME280;8720;48.488;9.202;2023-12-14T02:56:23;96166.56;;;11.77;63.04
17209;BME280;8720;48.488;9.202;2023-12-14T02:58:52;96163.28;;;11.72;63.26
17209;BME280;8720;48.488;9.202;2023-12-14T03:01:20;96154.94;;;11.62;63.11
17209;BME280;8720;48.488;9.202;2023-12-14T03:03:47;96168.81;;;11.64;63.24
17209;BME280;8720;48.488;9.202;2023-12-14T03:06:15;96167.16;;;11.62;63.34
17209;BME280;8720;48.488;9.202;2023-12-14T03:08:41;96163.75;;;11.60;63.71
17209;BME280;8720;48.488;9.202;2023-12-14T03:11:08;96169.97;;;11.57;63.89
17209;BME280;8720;48.488;9.202;2023-12-14T03:13:35;96175.28;;;11.56;63.80
17209;BME280;8720;48.488;9.202;2023-12-14T03:16:06;96175.28;;;11.56;63.84
17209;BME280;8720;48.488;9.202;2023-12-14T03:18:33;96182.22;;;11.57;63.88
17209;BME280;8720;48.488;9.202;2023-12-14T03:21:00;96184.78;;;11.58;64.02
17209;BME280;8720;48.488;9.202;2023-12-14T03:23:28;96185.63;;;11.59;63.92
17209;BME280;8720;48.488;9.202;2023-12-14T03:25:55;96192.66;;;11.58;63.95
17209;BME280;8720;48.488;9.202;2023-12-14T03:28:22;96204.81;;;11.59;64.20
17209;BME280;8720;48.488;9.202;2023-12-14T03:30:49;96205.66;;;11.60;64.19
17209;BME280;8720;48.488;9.202;2023-12-14T03:33:18;96215.22;;;11.61;64.12
17209;BME280;8720;48.488;9.202;2023-12-14T03:35:45;96220.41;;;11.62;63.89
17209;BME280;8720;48.488;9.202;2023-12-14T03:38:13;96215.19;;;11.62;64.06
17209;BME280;8720;48.488;9.202;2023-12-14T03:40:41;96225.56;;;11.65;64.08
17209;BME280;8720;48.488;9.202;2023-12-14T03:43:08;96240.31;;;11.68;63.96
17209;BME280;8720;48.488;9.202;2023-12-14T03:45:35;96222.03;;;11.65;63.88
17209;BME280;8720;48.488;9.202;2023-12-14T03:48:03;96220.31;;;11.65;63.97
17209;BME280;8720;48.488;9.202;2023-12-14T03:50:31;96233.16;;;11.71;63.78
17209;BME280;8720;48.488;9.202;2023-12-14T03:52:59;96246.34;;;11.70;63.86
17209;BME280;8720;48.488;9.202;2023-12-14T03:55:26;96241.09;;;11.70;63.74
17209;BME280;8720;48.488;9.202;2023-12-14T03:57:54;96243.13;;;11.62;63.63
17209;BME280;8720;48.488;9.202;2023-12-14T04:00:21;96260.22;;;11.72;63.95
17209;BME280;8720;48.488;9.202;2023-12-14T04:02:48;96254.91;;;11.73;63.86
17209;BME280;8720;48.488;9.202;2023-12-14T04:05:16;96257.59;;;11.72;63.72
17209;BME280;8720;48.488;9.202;2023-12-14T04:07:44;96263.63;;;11.74;63.87
17209;BME280;8720;48.488;9.202;2023-12-14T04:10:14;96267.16;;;11.73;63.67
17209;BME280;8720;48.488;9.202;2023-12-14T04:12:41;96272.34;;;11.74;63.61
17209;BME280;8720;48.488;9.202;2023-12-14T04:15:10;96268.88;;;11.74;63.94
17209;BME280;8720;48.488;9.202;2023-12-14T04:17:37;96278.44;;;11.75;63.69
17209;BME280;8720;48.488;9.202;2023-12-14T04:20:06;96277.53;;;11.76;63.77
17209;BME280;8720;48.488;9.202;2023-12-14T04:22:34;96289.78;;;11.75;63.70
17209;BME280;8720;48.488;9.202;2023-12-14T04:25:03;96292.31;;;11.77;63.50
17209;BME280;8720;48.488;9.202;2023-12-14T04:27:30;96291.47;;;11.76;63.70
17209;BME280;8720;48.488;9.202;2023-12-14T04:29:58;96293.19;;;11.77;63.77
17209;BME280;8720;48.488;9.202;2023-12-14T04:32:25;96299.28;;;11.78;63.75
17209;BME280;8720;48.488;9.202;2023-12-14T04:34:53;96304.53;;;11.78;63.69
17209;BME280;8720;48.488;9.202;2023-12-14T04:37:20;96308.03;;;11.77;63.69
17209;BME280;8720;48.488;9.202;2023-12-14T04:39:50;96304.53;;;11.78;63.75
17209;BME280;8720;48.488;9.202;2023-12-14T04:42:18;96311.47;;;11.79;63.89
17209;BME280;8720;48.488;9.202;2023-12-14T04:44:46;96314.00;;;11.80;63.61
17209;BME280;8720;48.488;9.202;2023-12-14T04:47:13;96320.19;;;11.79;63.79
17209;BME280;8720;48.488;9.202;2023-12-14T04:49:40;96325.44;;;11.79;63.67
17209;BME280;8720;48.488;9.202;2023-12-14T04:52:08;96326.31;;;11.78;63.84
17209;BME280;8720;48.488;9.202;2023-12-14T04:54:35;96329.88;;;11.77;63.72
17209;BME280;8720;48.488;9.202;2023-12-14T04:57:05;96343.84;;;11.78;63.88
17209;BME280;8720;48.488;9.202;2023-12-14T04:59:33;96341.22;;;11.78;63.80
17209;BME280;8720;48.488;9.202;2023-12-14T05:02:01;96352.50;;;11.80;63.62
17209;BME280;8720;48.488;9.202;2023-12-14T05:04:28;96348.94;;;11.81;63.80
17209;BME280;8720;48.488;9.202;2023-12-14T05:06:55;96362.91;;;11.81;63.89
17209;BME280;8720;48.488;9.202;2023-12-14T05:09:23;96358.56;;;11.80;63.68
17209;BME280;8720;48.488;9.202;2023-12-14T05:11:50;96358.63;;;11.79;63.69
17209;BME280;8720;48.488;9.202;2023-12-14T05:14:19;96363.88;;;11.79;63.69
17209;BME280;8720;48.488;9.202;2023-12-14T05:16:47;96374.34;;;11.79;63.68
17209;BME280;8720;48.488;9.202;2023-12-14T05:19:15;96376.97;;;11.79;63.97
17209;BME280;8720;48.488;9.202;2023-12-14T05:21:42;96379.59;;;11.79;64.03
17209;BME280;8720;48.488;9.202;2023-12-14T05:24:10;96379.59;;;11.79;63.98
17209;BME280;8720;48.488;9.202;2023-12-14T05:26:37;96383.06;;;11.79;63.98
17209;BME280;8720;48.488;9.202;2023-12-14T05:29:04;96396.19;;;11.79;64.02
17209;BME280;8720;48.488;9.202;2023-12-14T05:31:31;96396.19;;;11.79;63.82
17209;BME280;8720;48.488;9.202;2023-12-14T05:34:00;96397.88;;;11.80;63.79
17209;BME280;8720;48.488;9.202;2023-12-14T05:36:28;96407.53;;;11.80;63.89
17209;BME280;8720;48.488;9.202;2023-12-14T05:38:55;96414.47;;;11.81;64.01
17209;BME280;8720;48.488;9.202;2023-12-14T05:41:23;96421.38;;;11.82;63.83
17209;BME280;8720;48.488;9.202;2023-12-14T05:43:51;96399.25;;;11.67;63.85
17209;BME280;8720;48.488;9.202;2023-12-14T05:46:22;96429.38;;;11.79;63.85
17209;BME280;8720;48.488;9.202;2023-12-14T05:48:50;96443.22;;;11.82;63.79
17209;BME280;8720;48.488;9.202;2023-12-14T05:51:28;96440.66;;;11.81;63.81
17209;BME280;8720;48.488;9.202;2023-12-14T05:53:56;96444.22;;;11.80;64.08
17209;BME280;8720;48.488;9.202;2023-12-14T05:56:24;96450.41;;;11.77;63.89
17209;BME280;8720;48.488;9.202;2023-12-14T05:58:51;96458.34;;;11.76;64.05
17209;BME280;8720;48.488;9.202;2023-12-14T06:01:19;96447.22;;;11.69;63.97
17209;BME280;8720;48.488;9.202;2023-12-14T06:03:46;96468.75;;;11.77;64.09
17209;BME280;8720;48.488;9.202;2023-12-14T06:06:14;96472.28;;;11.76;64.05
17209;BME280;8720;48.488;9.202;2023-12-14T06:08:42;96464.75;;;11.67;63.75
17209;BME280;8720;48.488;9.202;2023-12-14T06:11:10;96474.06;;;11.76;63.91
17209;BME280;8720;48.488;9.202;2023-12-14T06:13:37;96488.06;;;11.75;63.91
17209;BME280;8720;48.488;9.202;2023-12-14T06:16:06;96477.72;;;11.70;64.10
17209;BME280;8720;48.488;9.202;2023-12-14T06:18:39;96480.47;;;11.67;64.18
17209;BME280;8720;48.488;9.202;2023-12-14T06:21:07;96489.28;;;11.66;64.10
17209;BME280;8720;48.488;9.202;2023-12-14T06:23:35;96492.69;;;11.68;64.04
17209;BME280;8720;48.488;9.202;2023-12-14T06:26:05;96495.31;;;11.68;64.03
17209;BME280;8720;48.488;9.202;2023-12-14T06:28:32;96504.81;;;11.71;64.05
17209;BME280;8720;48.488;9.202;2023-12-14T06:30:59;96505.59;;;11.73;64.08
17209;BME280;8720;48.488;9.202;2023-12-14T06:33:28;96507.31;;;11.74;64.13
17209;BME280;8720;48.488;9.202;2023-12-14T06:35:55;96517.81;;;11.74;64.03
17209;BME280;8720;48.488;9.202;2023-12-14T06:38:22;96516.09;;;11.73;63.86
17209;BME280;8720;48.488;9.202;2023-12-14T06:40:50;96521.31;;;11.73;63.96
17209;BME280;8720;48.488;9.202;2023-12-14T06:43:19;96520.53;;;11.71;63.93
17209;BME280;8720;48.488;9.202;2023-12-14T06:45:46;96528.38;;;11.71;63.91
17209;BME280;8720;48.488;9.202;2023-12-14T06:48:13;96531.94;;;11.70;64.08
17209;BME280;8720;48.488;9.202;2023-12-14T06:50:41;96535.34;;;11.72;63.99
17209;BME280;8720;48.488;9.202;2023-12-14T06:53:08;96529.41;;;11.67;64.04
17209;BME280;8720;48.488;9.202;2023-12-14T06:55:36;96544.84;;;11.74;64.10
17209;BME280;8720;48.488;9.202;2023-12-14T06:58:04;96539.56;;;11.76;64.28
17209;BME280;8720;48.488;9.202;2023-12-14T07:00:36;96546.50;;;11.77;64.18
17209;BME280;8720;48.488;9.202;2023-12-14T07:03:03;96552.50;;;12.04;62.93
17209;BME280;8720;48.488;9.202;2023-12-14T07:05:30;96561.34;;;12.01;63.29
17209;BME280;8720;48.488;9.202;2023-12-14T07:07:59;96558.97;;;11.95;63.61
17209;BME280;8720;48.488;9.202;2023-12-14T07:10:27;96574.78;;;11.92;63.70
17209;BME280;8720;48.488;9.202;2023-12-14T07:12:54;96573.09;;;11.91;63.67
17209;BME280;8720;48.488;9.202;2023-12-14T07:15:22;96581.00;;;11.90;64.04
17209;BME280;8720;48.488;9.202;2023-12-14T07:17:50;96583.66;;;11.88;63.91
17209;BME280;8720;48.488;9.202;2023-12-14T07:20:18;96584.44;;;11.92;63.94
17209;BME280;8720;48.488;9.202;2023-12-14T07:22:45;96602.72;;;11.93;63.85
17209;BME280;8720;48.488;9.202;2023-12-14T07:25:13;96603.53;;;11.94;63.89
17209;BME280;8720;48.488;9.202;2023-12-14T07:27:41;96602.88;;;11.88;63.97
17209;BME280;8720;48.488;9.202;2023-12-14T07:30:10;96613.84;;;12.23;62.60
17209;BME280;8720;48.488;9.202;2023-12-14T07:32:38;96609.63;;;12.19;63.02
17209;BME280;8720;48.488;9.202;2023-12-14T07:35:07;96612.53;;;12.11;63.23
17209;BME280;8720;48.488;9.202;2023-12-14T07:37:36;96617.66;;;12.14;63.34
17209;BME280;8720;48.488;9.202;2023-12-14T07:40:05;96623.81;;;12.13;63.47
17209;BME280;8720;48.488;9.202;2023-12-14T07:42:32;96629.91;;;12.14;63.57
17209;BME280;8720;48.488;9.202;2023-12-14T07:45:00;96625.53;;;12.14;63.61
17209;BME280;8720;48.488;9.202;2023-12-14T07:47:27;96630.72;;;12.16;63.68
17209;BME280;8720;48.488;9.202;2023-12-14T07:49:54;96638.53;;;12.17;63.71
17209;BME280;8720;48.488;9.202;2023-12-14T07:52:23;96651.56;;;12.19;63.71
17209;BME280;8720;48.488;9.202;2023-12-14T07:54:51;96651.53;;;12.20;63.54
17209;BME280;8720;48.488;9.202;2023-12-14T07:57:21;96655.00;;;12.21;63.34
17209;BME280;8720;48.488;9.202;2023-12-14T07:59:49;96665.47;;;12.21;63.50
17209;BME280;8720;48.488;9.202;2023-12-14T08:02:17;96672.41;;;12.23;63.57
17209;BME280;8720;48.488;9.202;2023-12-14T08:04:44;96671.50;;;12.24;63.28
17209;BME280;8720;48.488;9.202;2023-12-14T08:07:12;96674.06;;;12.26;63.77
17209;BME280;8720;48.488;9.202;2023-12-14T08:09:40;96680.16;;;12.26;63.65
17209;BME280;8720;48.488;9.202;2023-12-14T08:12:08;96685.41;;;12.26;63.57
17209;BME280;8720;48.488;9.202;2023-12-14T08:14:36;96690.66;;;12.26;63.83
17209;BME280;8720;48.488;9.202;2023-12-14T08:17:07;96692.34;;;12.27;63.78
17209;BME280;8720;48.488;9.202;2023-12-14T08:19:34;96692.34;;;12.27;63.84
17209;BME280;8720;48.488;9.202;2023-12-14T08:22:01;96707.94;;;12.32;63.84
17209;BME280;8720;48.488;9.202;2023-12-14T08:24:29;96717.44;;;12.34;63.67
17209;BME280;8720;48.488;9.202;2023-12-14T08:26:57;96713.88;;;12.37;63.84
17209;BME280;8720;48.488;9.202;2023-12-14T08:29:24;96715.53;;;12.39;63.53
17209;BME280;8720;48.488;9.202;2023-12-14T08:31:52;96722.41;;;12.42;63.80
17209;BME280;8720;48.488;9.202;2023-12-14T08:34:19;96727.56;;;12.45;63.90
17209;BME280;8720;48.488;9.202;2023-12-14T08:36:46;96737.09;;;12.47;63.68
17209;BME280;8720;48.488;9.202;2023-12-14T08:39:14;96740.53;;;12.49;63.73
17209;BME280;8720;48.488;9.202;2023-12-14T08:41:41;96747.41;;;12.52;63.93
17209;BME280;8720;48.488;9.202;2023-12-14T08:44:12;96744.00;;;12.50;63.92
17209;BME280;8720;48.488;9.202;2023-12-14T08:46:40;96748.06;;;12.58;63.95
17209;BME280;8720;48.488;9.202;2023-12-14T08:49:08;96754.13;;;12.60;63.82
17209;BME280;8720;48.488;9.202;2023-12-14T08:51:35;96754.84;;;12.64;64.10
17209;BME280;8720;48.488;9.202;2023-12-14T08:54:03;96759.97;;;12.67;63.99
17209;BME280;8720;48.488;9.202;2023-12-14T08:56:30;96761.59;;;12.71;63.85
17209;BME280;8720;48.488;9.202;2023-12-14T08:58:58;96769.38;;;12.74;63.93
17209;BME280;8720;48.488;9.202;2023-12-14T09:01:27;96772.72;;;12.77;63.96
17209;BME280;8720;48.488;9.202;2023-12-14T09:03:55;96780.44;;;12.82;64.16
17209;BME280;8720;48.488;9.202;2023-12-14T09:06:22;96782.88;;;12.87;63.89
17209;BME280;8720;48.488;9.202;2023-12-14T09:08:52;96787.13;;;12.91;64.29
17209;BME280;8720;48.488;9.202;2023-12-14T09:11:20;96789.66;;;12.94;64.34
17209;BME280;8720;48.488;9.202;2023-12-14T09:13:47;96794.63;;;13.00;64.30
17209;BME280;8720;48.488;9.202;2023-12-14T09:16:15;96801.53;;;13.04;64.17
17209;BME280;8720;48.488;9.202;2023-12-14T09:18:44;96804.91;;;13.07;64.04
17209;BME280;8720;48.488;9.202;2023-12-14T09:21:11;96812.81;;;13.07;64.00
17209;BME280;8720;48.488;9.202;2023-12-14T09:23:40;96818.94;;;13.06;63.71
17209;BME280;8720;48.488;9.202;2023-12-14T09:26:08;96815.53;;;13.04;63.78
17209;BME280;8720;48.488;9.202;2023-12-14T09:28:36;96818.09;;;13.06;63.76
17209;BME280;8720;48.488;9.202;2023-12-14T09:31:04;96820.69;;;13.07;63.81
17209;BME280;8720;48.488;9.202;2023-12-14T09:33:31;96820.63;;;13.09;63.78
17209;BME280;8720;48.488;9.202;2023-12-14T09:36:00;96831.94;;;13.11;63.75
17209;BME280;8720;48.488;9.202;2023-12-14T09:38:27;96821.34;;;13.12;64.08
17209;BME280;8720;48.488;9.202;2023-12-14T09:40:55;96832.59;;;13.16;64.01
17209;BME280;8720;48.488;9.202;2023-12-14T09:43:23;96837.78;;;13.17;63.81
17209;BME280;8720;48.488;9.202;2023-12-14T09:45:51;96843.00;;;13.19;63.76
17209;BME280;8720;48.488;9.202;2023-12-14T09:48:20;96845.56;;;13.20;63.82
17209;BME280;8720;48.488;9.202;2023-12-14T09:50:50;96847.16;;;13.24;63.94
17209;BME280;8720;48.488;9.202;2023-12-14T09:53:19;96852.19;;;13.30;63.90
17209;BME280;8720;48.488;9.202;2023-12-14T09:55:46;96855.63;;;13.32;63.80
17209;BME280;8720;48.488;9.202;2023-12-14T09:58:14;96858.19;;;13.34;63.89
17209;BME280;8720;48.488;9.202;2023-12-14T10:00:42;96859.78;;;13.38;63.72
17209;BME280;8720;48.488;9.202;2023-12-14T10:03:21;96861.50;;;13.39;63.63
17209;BME280;8720;48.488;9.202;2023-12-14T10:05:50;96870.09;;;13.44;63.84
17209;BME280;8720;48.488;9.202;2023-12-14T10:08:19;96870.97;;;13.43;63.91
17209;BME280;8720;48.488;9.202;2023-12-14T10:10:49;96876.97;;;13.46;63.76
17209;BME280;8720;48.488;9.202;2023-12-14T10:13:19;96888.34;;;13.47;63.79
17209;BME280;8720;48.488;9.202;2023-12-14T10:15:48;96890.84;;;13.50;64.12
17209;BME280;8720;48.488;9.202;2023-12-14T10:18:22;96891.72;;;13.50;64.13
17209;BME280;8720;48.488;9.202;2023-12-14T10:20:51;96889.22;;;13.47;63.79
17209;BME280;8720;48.488;9.202;2023-12-14T10:23:20;96896.97;;;13.50;63.72
17209;BME280;8720;48.488;9.202;2023-12-14T10:25:48;96900.47;;;13.51;63.88
17209;BME280;8720;48.488;9.202;2023-12-14T10:28:15;96896.47;;;13.41;63.80
17209;BME280;8720;48.488;9.202;2023-12-14T10:30:44;96907.59;;;13.47;63.83
17209;BME280;8720;48.488;9.202;2023-12-14T10:33:11;96911.03;;;13.49;64.03
17209;BME280;8720;48.488;9.202;2023-12-14T10:35:40;96911.84;;;13.51;63.61
17209;BME280;8720;48.488;9.202;2023-12-14T10:38:12;96906.53;;;13.53;64.00
17209;BME280;8720;48.488;9.202;2023-12-14T10:40:40;96911.59;;;13.57;64.02
17209;BME280;8720;48.488;9.202;2023-12-14T10:43:12;96911.56;;;13.59;64.05
17209;BME280;8720;48.488;9.202;2023-12-14T10:45:41;96912.28;;;13.62;63.81
17209;BME280;8720;48.488;9.202;2023-12-14T10:48:10;96911.34;;;13.63;63.71
17209;BME280;8720;48.488;9.202;2023-12-14T10:50:42;96920.97;;;13.64;63.65
17209;BME280;8720;48.488;9.202;2023-12-14T10:53:10;96916.59;;;13.65;63.71
17209;BME280;8720;48.488;9.202;2023-12-14T10:55:42;96919.31;;;13.62;63.79
17209;BME280;8720;48.488;9.202;2023-12-14T10:58:11;96926.09;;;13.67;63.90
17209;BME280;8720;48.488;9.202;2023-12-14T11:00:39;96929.47;;;13.71;63.58
17209;BME280;8720;48.488;9.202;2023-12-14T11:03:06;96933.81;;;13.72;63.38
17209;BME280;8720;48.488;9.202;2023-12-14T11:05:34;96930.28;;;13.73;63.62
17209;BME280;8720;48.488;9.202;2023-12-14T11:08:04;96938.13;;;13.75;63.82
17209;BME280;8720;48.488;9.202;2023-12-14T11:10:42;96940.69;;;13.76;63.72
17209;BME280;8720;48.488;9.202;2023-12-14T11:13:12;96951.06;;;13.79;63.50
17209;BME280;8720;48.488;9.202;2023-12-14T11:15:46;96950.34;;;13.76;63.18
17209;BME280;8720;48.488;9.202;2023-12-14T11:18:26;96953.03;;;13.74;63.46
17209;BME280;8720;48.488;9.202;2023-12-14T11:20:58;96934.97;;;13.65;63.48
17209;BME280;8720;48.488;9.202;2023-12-14T11:23:30;96945.22;;;13.73;63.38
17209;BME280;8720;48.488;9.202;2023-12-14T11:26:02;96945.94;;;13.76;63.56
17209;BME280;8720;48.488;9.202;2023-12-14T11:28:32;96948.44;;;13.79;63.23
17209;BME280;8720;48.488;9.202;2023-12-14T11:31:01;96944.78;;;13.83;63.31
17209;BME280;8720;48.488;9.202;2023-12-14T11:33:33;96952.44;;;13.89;63.39
17209;BME280;8720;48.488;9.202;2023-12-14T11:36:02;96944.50;;;13.91;63.29
17209;BME280;8720;48.488;9.202;2023-12-14T11:38:31;96940.97;;;13.92;63.24
17209;BME280;8720;48.488;9.202;2023-12-14T11:40:59;96953.69;;;14.02;63.22
17209;BME280;8720;48.488;9.202;2023-12-14T11:43:27;96955.28;;;14.06;63.12
17209;BME280;8720;48.488;9.202;2023-12-14T11:45:55;96960.53;;;14.06;62.99
17209;BME280;8720;48.488;9.202;2023-12-14T11:48:24;96959.59;;;14.09;62.93
17209;BME280;8720;48.488;9.202;2023-12-14T11:50:51;96963.06;;;14.09;63.11
17209;BME280;8720;48.488;9.202;2023-12-14T11:53:20;96972.66;;;14.10;62.82
17209;BME280;8720;48.488;9.202;2023-12-14T11:55:47;96970.84;;;14.12;62.58
17209;BME280;8720;48.488;9.202;2023-12-14T11:58:16;96971.69;;;14.13;62.87
17209;BME280;8720;48.488;9.202;2023-12-14T12:00:44;96977.69;;;14.16;62.88
17209;BME280;8720;48.488;9.202;2023-12-14T12:03:15;96978.44;;;14.20;62.41
17209;BME280;8720;48.488;9.202;2023-12-14T12:05:45;96978.44;;;14.20;62.57
17209;BME280;8720;48.488;9.202;2023-12-14T12:08:16;96985.28;;;14.24;62.89
17209;BME280;8720;48.488;9.202;2023-12-14T12:10:46;96990.41;;;14.28;62.80
17209;BME280;8720;48.488;9.202;2023-12-14T12:13:17;96994.59;;;14.34;62.63
17209;BME280;8720;48.488;9.202;2023-12-14T12:15:45;96996.91;;;14.41;62.51
17209;BME280;8720;48.488;9.202;2023-12-14T12:18:14;96999.41;;;14.44;62.71
17209;BME280;8720;48.488;9.202;2023-12-14T12:20:42;96994.94;;;14.46;62.82
17209;BME280;8720;48.488;9.202;2023-12-14T12:23:10;96993.91;;;14.50;62.17
17209;BME280;8720;48.488;9.202;2023-12-14T12:25:37;96996.47;;;14.52;62.42
17209;BME280;8720;48.488;9.202;2023-12-14T12:28:05;97004.38;;;14.52;62.33
17209;BME280;8720;48.488;9.202;2023-12-14T12:30:33;96992.94;;;14.53;62.28
17209;BME280;8720;48.488;9.202;2023-12-14T12:33:02;96989.66;;;14.48;62.29
17209;BME280;8720;48.488;9.202;2023-12-14T12:35:29;96999.78;;;14.57;62.40
17209;BME280;8720;48.488;9.202;2023-12-14T12:37:59;97008.72;;;14.53;61.84
17209;BME280;8720;48.488;9.202;2023-12-14T12:40:26;97013.88;;;14.56;61.99
17209;BME280;8720;48.488;9.202;2023-12-14T12:42:53;97014.84;;;14.53;61.63
17209;BME280;8720;48.488;9.202;2023-12-14T12:45:21;97015.09;;;14.47;61.71
17209;BME280;8720;48.488;9.202;2023-12-14T12:47:52;97018.88;;;14.40;61.62
17209;BME280;8720;48.488;9.202;2023-12-14T12:50:20;97020.31;;;14.26;61.27
17209;BME280;8720;48.488;9.202;2023-12-14T12:52:47;97023.28;;;14.17;61.33
17209;BME280;8720;48.488;9.202;2023-12-14T12:55:15;97022.38;;;13.95;61.37
17209;BME280;8720;48.488;9.202;2023-12-14T12:57:43;97023.09;;;13.75;61.66
17209;BME280;8720;48.488;9.202;2023-12-14T13:00:12;97009.63;;;13.61;61.90
17209;BME280;8720;48.488;9.202;2023-12-14T13:02:40;97004.03;;;13.45;62.17
17209;BME280;8720;48.488;9.202;2023-12-14T13:05:13;97014.81;;;13.38;62.00
17209;BME280;8720;48.488;9.202;2023-12-14T13:07:45;97027.25;;;13.33;62.57
17209;BME280;8720;48.488;9.202;2023-12-14T13:10:13;97024.81;;;13.27;62.60
17209;BME280;8720;48.488;9.202;2023-12-14T13:12:41;97028.59;;;13.20;62.59
17209;BME280;8720;48.488;9.202;2023-12-14T13:15:10;97032.13;;;13.19;62.67